^^
Grace C. Lehan Memorial Weather Station Historical Data
Daily Summary for May 22, 2022 Units:  Both    English   Metric
Daily Weekly Monthly Yearly
  High: Low: Average:
Temperature: 35.9 °F /  2.2 °C 29.9 °F /  -1.2 °C 32.2 °F /  0.1 °C
Dew Point: 29.4 °F /  -1.4 °C 27.1 °F /  -2.7 °C 28 °F /  -2.2 °C
Humidity: 90% 75% 84%
Wind Speed: 0mph /  0km/h - 0mph /  0km/h
Wind Gust: 0mph /  0km/h - -
Wind- -
Pressure: 30.36 in /  1028 hPa 30.33 in /  1027 hPa -
Precipitation: 0.00 in /  0 mm    
 
 
Tabular Data for May 22, 2022
Time Temperature Dew Point Pressure Wind Wind Speed Wind Gust Humidity Rainfall Rate (Hourly) solar
00:04 35.9 °F /  2.2 °C 28.8 °F /  -1.8 °C 30.35in /  1027.7hPa Calm     75% 0.00in /  0mm 0 W/m2
00:09 35.7 °F /  2.1 °C 28.8 °F /  -1.8 °C 30.36in /  1028hPa Calm     75.7% 0.00in /  0mm 0 W/m2
00:14 35.5 °F /  1.9 °C 28.8 °F /  -1.8 °C 30.35in /  1027.7hPa Calm     76.3% 0.00in /  0mm 0 W/m2
00:19 35.4 °F /  1.9 °C 28.9 °F /  -1.7 °C 30.35in /  1027.7hPa Calm     77% 0.00in /  0mm 0 W/m2
00:24 35.3 °F /  1.8 °C 29.1 °F /  -1.6 °C 30.35in /  1027.7hPa Calm     77.8% 0.00in /  0mm 0 W/m2
00:29 35.2 °F /  1.8 °C 29.1 °F /  -1.6 °C 30.35in /  1027.7hPa Calm     78.1% 0.00in /  0mm 0 W/m2
00:34 35.2 °F /  1.8 °C 29.4 °F /  -1.4 °C 30.35in /  1027.7hPa Calm     79% 0.00in /  0mm 0 W/m2
00:39 35.3 °F /  1.8 °C 29.4 °F /  -1.4 °C 30.35in /  1027.7hPa Calm     79% 0.00in /  0mm 0 W/m2
00:44 35.3 °F /  1.8 °C 29.4 °F /  -1.4 °C 30.35in /  1027.7hPa Calm     79% 0.00in /  0mm 0 W/m2
00:49 35.2 °F /  1.8 °C 29.4 °F /  -1.4 °C 30.35in /  1027.7hPa Calm     79% 0.00in /  0mm 0 W/m2
00:54 35.1 °F /  1.7 °C 29.2 °F /  -1.6 °C 30.35in /  1027.7hPa Calm     79% 0.00in /  0mm 0 W/m2
00:59 35 °F /  1.7 °C 29.1 °F /  -1.6 °C 30.36in /  1028hPa Calm     79% 0.00in /  0mm 0 W/m2
01:04 34.8 °F /  1.6 °C 29 °F /  -1.7 °C 30.36in /  1028hPa Calm     79% 0.00in /  0mm 0 W/m2
01:09 34.6 °F /  1.4 °C 28.8 °F /  -1.8 °C 30.36in /  1028hPa Calm     79% 0.00in /  0mm 0 W/m2
01:14 34.5 °F /  1.4 °C 28.9 °F /  -1.7 °C 30.36in /  1028hPa Calm     79.7% 0.00in /  0mm 0 W/m2
01:19 34.3 °F /  1.3 °C 28.8 °F /  -1.8 °C 30.36in /  1028hPa Calm     80% 0.00in /  0mm 0 W/m2
01:24 34.2 °F /  1.2 °C 28.7 °F /  -1.8 °C 30.35in /  1027.7hPa Calm     80% 0.00in /  0mm 0 W/m2
01:29 34.1 °F /  1.2 °C 28.9 °F /  -1.7 °C 30.36in /  1028hPa Calm     81% 0.00in /  0mm 0 W/m2
01:34 33.9 °F /  1.1 °C 28.7 °F /  -1.8 °C 30.36in /  1028hPa Calm     81% 0.00in /  0mm 0 W/m2
01:39 33.7 °F /  0.9 °C 28.5 °F /  -1.9 °C 30.36in /  1028hPa Calm     81% 0.00in /  0mm 0 W/m2
01:44 33.4 °F /  0.8 °C 28.2 °F /  -2.1 °C 30.36in /  1028hPa Calm     81% 0.00in /  0mm 0 W/m2
01:49 33.2 °F /  0.7 °C 28 °F /  -2.2 °C 30.36in /  1028hPa Calm     81% 0.00in /  0mm 0 W/m2
01:54 32.9 °F /  0.5 °C 27.8 °F /  -2.3 °C 30.35in /  1027.7hPa Calm     81.2% 0.00in /  0mm 0 W/m2
01:59 32.7 °F /  0.4 °C 27.7 °F /  -2.4 °C 30.34in /  1027.3hPa Calm     81.5% 0.00in /  0mm 0 W/m2
02:04 32.5 °F /  0.3 °C 27.7 °F /  -2.4 °C 30.34in /  1027.3hPa Calm     82% 0.00in /  0mm 0 W/m2
02:09 32.3 °F /  0.2 °C 27.5 °F /  -2.5 °C 30.34in /  1027.3hPa Calm     82% 0.00in /  0mm 0 W/m2
02:14 32.1 °F /  0.1 °C 27.3 °F /  -2.6 °C 30.35in /  1027.7hPa Calm     82% 0.00in /  0mm 0 W/m2
02:19 32 °F /  0 °C 27.3 °F /  -2.6 °C 30.35in /  1027.7hPa Calm     82.6% 0.00in /  0mm 0 W/m2
02:24 31.9 °F /  -0.1 °C 27.3 °F /  -2.6 °C 30.35in /  1027.7hPa Calm     83% 0.00in /  0mm 0 W/m2
02:29 31.8 °F /  -0.1 °C 27.5 °F /  -2.5 °C 30.35in /  1027.7hPa Calm     83.9% 0.00in /  0mm 0 W/m2
02:34 31.8 °F /  -0.1 °C 27.6 °F /  -2.4 °C 30.34in /  1027.3hPa Calm     84.3% 0.00in /  0mm 0 W/m2
02:39 31.9 °F /  -0.1 °C 27.9 °F /  -2.3 °C 30.34in /  1027.3hPa Calm     85% 0.00in /  0mm 0 W/m2
02:44 31.9 °F /  -0.1 °C 27.9 °F /  -2.3 °C 30.34in /  1027.3hPa Calm     85% 0.00in /  0mm 0 W/m2
02:49 32 °F /  0 °C 28 °F /  -2.2 °C 30.33in /  1027hPa Calm     85% 0.00in /  0mm 0 W/m2
02:54 32 °F /  0 °C 28.1 °F /  -2.2 °C 30.34in /  1027.3hPa Calm     85.4% 0.00in /  0mm 0 W/m2
02:59 32 °F /  0 °C 28.2 °F /  -2.1 °C 30.34in /  1027.3hPa Calm     85.5% 0.00in /  0mm 0 W/m2
03:04 31.9 °F /  -0.1 °C 27.9 °F /  -2.3 °C 30.34in /  1027.3hPa Calm     85% 0.00in /  0mm 0 W/m2
03:09 31.8 °F /  -0.1 °C 27.9 °F /  -2.3 °C 30.33in /  1027hPa Calm     85% 0.00in /  0mm 0 W/m2
03:14 31.8 °F /  -0.1 °C 28 °F /  -2.2 °C 30.33in /  1027hPa Calm     85.8% 0.00in /  0mm 0 W/m2
03:19 31.7 °F /  -0.2 °C 28 °F /  -2.2 °C 30.33in /  1027hPa Calm     86% 0.00in /  0mm 0 W/m2
03:24 31.6 °F /  -0.2 °C 28.2 °F /  -2.1 °C 30.33in /  1027hPa Calm     86.9% 0.00in /  0mm 0 W/m2
03:29 31.5 °F /  -0.3 °C 27.8 °F /  -2.3 °C 30.34in /  1027.3hPa Calm     86% 0.00in /  0mm 0 W/m2
03:34 31.4 °F /  -0.3 °C 27.7 °F /  -2.4 °C 30.34in /  1027.3hPa Calm     86% 0.00in /  0mm 0 W/m2
03:39 31.3 °F /  -0.4 °C 27.6 °F /  -2.4 °C 30.34in /  1027.3hPa Calm     86% 0.00in /  0mm 0 W/m2
03:44 31.2 °F /  -0.4 °C 27.5 °F /  -2.5 °C 30.34in /  1027.3hPa Calm     86% 0.00in /  0mm 0 W/m2
03:49 31.1 °F /  -0.5 °C 27.4 °F /  -2.6 °C 30.34in /  1027.3hPa Calm     86% 0.00in /  0mm 0 W/m2
03:54 31 °F /  -0.6 °C 27.5 °F /  -2.5 °C 30.34in /  1027.3hPa Calm     86.7% 0.00in /  0mm 0 W/m2
03:59 30.9 °F /  -0.6 °C 27.4 °F /  -2.6 °C 30.35in /  1027.7hPa Calm     87% 0.00in /  0mm 0 W/m2
04:04 30.8 °F /  -0.7 °C 27.4 °F /  -2.6 °C 30.34in /  1027.3hPa Calm     87% 0.00in /  0mm 0 W/m2
04:09 30.7 °F /  -0.7 °C 27.3 °F /  -2.6 °C 30.34in /  1027.3hPa Calm     87% 0.00in /  0mm 0 W/m2
04:14 30.7 °F /  -0.7 °C 27.3 °F /  -2.6 °C 30.35in /  1027.7hPa Calm     87% 0.00in /  0mm 0 W/m2
04:19 30.7 °F /  -0.7 °C 27.5 °F /  -2.5 °C 30.35in /  1027.7hPa Calm     87.8% 0.00in /  0mm 0 W/m2
04:24 30.7 °F /  -0.7 °C 27.6 °F /  -2.4 °C 30.35in /  1027.7hPa Calm     88% 0.00in /  0mm 0 W/m2
04:29 30.8 °F /  -0.7 °C 27.7 °F /  -2.4 °C 30.35in /  1027.7hPa Calm     88% 0.00in /  0mm 0 W/m2
04:34 30.8 °F /  -0.7 °C 27.7 °F /  -2.4 °C 30.35in /  1027.7hPa Calm     88% 0.00in /  0mm 0 W/m2
04:39 30.7 °F /  -0.7 °C 27.6 °F /  -2.4 °C 30.36in /  1028hPa Calm     88% 0.00in /  0mm 0 W/m2
04:44 30.7 °F /  -0.7 °C 27.6 °F /  -2.4 °C 30.36in /  1028hPa Calm     88% 0.00in /  0mm 0 W/m2
04:49 30.6 °F /  -0.8 °C 27.5 °F /  -2.5 °C 30.35in /  1027.7hPa Calm     88% 0.00in /  0mm 0 W/m2
04:54 30.6 °F /  -0.8 °C 27.5 °F /  -2.5 °C 30.36in /  1028hPa Calm     88% 0.00in /  0mm 0 W/m2
04:59 30.5 °F /  -0.8 °C 27.4 °F /  -2.6 °C 30.36in /  1028hPa Calm     88% 0.00in /  0mm 0 W/m2
05:04 30.5 °F /  -0.8 °C 27.4 °F /  -2.6 °C 30.36in /  1028hPa Calm     88% 0.00in /  0mm 0 W/m2
05:09 30.5 °F /  -0.8 °C 27.6 °F /  -2.4 °C 30.36in /  1028hPa Calm     88.9% 0.00in /  0mm 0 W/m2
05:14 30.4 °F /  -0.9 °C 27.6 °F /  -2.4 °C 30.36in /  1028hPa Calm     89% 0.00in /  0mm 0 W/m2
05:19 30.3 °F /  -0.9 °C 27.5 °F /  -2.5 °C 30.36in /  1028hPa Calm     89% 0.00in /  0mm 0 W/m2
05:24 30.3 °F /  -0.9 °C 27.4 °F /  -2.6 °C 30.35in /  1027.7hPa Calm     89% 0.00in /  0mm 0 W/m2
05:29 30.2 °F /  -1 °C 27.4 °F /  -2.6 °C 30.36in /  1028hPa Calm     89% 0.00in /  0mm 0 W/m2
05:34 30.1 °F /  -1.1 °C 27.3 °F /  -2.6 °C 30.35in /  1027.7hPa Calm     89% 0.00in /  0mm 0 W/m2
05:39 30.1 °F /  -1.1 °C 27.2 °F /  -2.7 °C 30.36in /  1028hPa Calm     89% 0.00in /  0mm 0 W/m2
05:44 30 °F /  -1.1 °C 27.1 °F /  -2.7 °C 30.36in /  1028hPa Calm     89% 0.00in /  0mm 0 W/m2
05:49 29.9 °F /  -1.2 °C 27.1 °F /  -2.7 °C 30.36in /  1028hPa Calm     89% 0.00in /  0mm 0 W/m2
05:54 29.9 °F /  -1.2 °C 27.1 °F /  -2.7 °C 30.36in /  1028hPa Calm     89% 0.00in /  0mm 0 W/m2
05:59 29.9 °F /  -1.2 °C 27.2 °F /  -2.7 °C 30.36in /  1028hPa Calm     89.5% 0.00in /  0mm 0 W/m2
06:04 29.9 °F /  -1.2 °C 27.3 °F /  -2.6 °C 30.35in /  1027.7hPa Calm     90% 0.00in /  0mm 0 W/m2
06:08 29.9 °F /  -1.2 °C 27.3 °F /  -2.6 °C 30.35in /  1027.7hPa Calm     89.8% 0.00in /  0mm 0 W/m2
Hartford County Weather
Compliments of Weather Underground - 4 mb